sensor_id;sensor_type;location;lat;lon;timestamp;pressure;altitude;pressure_sealevel;temperature;humidity
53868;BME280;41577;47.470;19.080;2023-05-02T00:00:12;100269.81;;;13.87;47.03
53868;BME280;41577;47.470;19.080;2023-05-02T00:00:24;100265.25;;;13.88;47.13
53868;BME280;41577;47.470;19.080;2023-05-02T00:00:35;100259.88;;;13.88;47.34
53868;BME280;41577;47.470;19.080;2023-05-02T00:00:47;100261.75;;;13.87;47.31
53868;BME280;41577;47.470;19.080;2023-05-02T00:01:00;100265.25;;;13.88;47.55
53868;BME280;41577;47.470;19.080;2023-05-02T00:01:12;100272.50;;;13.87;47.19
53868;BME280;41577;47.470;19.080;2023-05-02T00:01:24;100263.63;;;13.87;47.26
53868;BME280;41577;47.470;19.080;2023-05-02T00:01:36;100262.78;;;13.86;46.64
53868;BME280;41577;47.470;19.080;2023-05-02T00:01:48;100261.75;;;13.87;46.62
53868;BME280;41577;47.470;19.080;2023-05-02T00:01:59;100260.94;;;13.87;46.71
53868;BME280;41577;47.470;19.080;2023-05-02T00:02:11;100262.56;;;13.88;46.91
53868;BME280;41577;47.470;19.080;2023-05-02T00:02:23;100263.38;;;13.88;46.77
53868;BME280;41577;47.470;19.080;2023-05-02T00:02:35;100267.31;;;13.86;46.81
53868;BME280;41577;47.470;19.080;2023-05-02T00:02:47;100260.09;;;13.86;47.12
53868;BME280;41577;47.470;19.080;2023-05-02T00:02:59;100266.31;;;13.87;46.73
53868;BME280;41577;47.470;19.080;2023-05-02T00:03:11;100260.94;;;13.87;46.91
53868;BME280;41577;47.470;19.080;2023-05-02T00:03:24;100258.25;;;13.87;46.95
53868;BME280;41577;47.470;19.080;2023-05-02T00:03:36;100258.25;;;13.87;46.89
53868;BME280;41577;47.470;19.080;2023-05-02T00:03:48;100265.44;;;13.86;47.18
53868;BME280;41577;47.470;19.080;2023-05-02T00:04:00;100260.09;;;13.86;46.97
53868;BME280;41577;47.470;19.080;2023-05-02T00:04:12;100263.63;;;13.87;46.67
53868;BME280;41577;47.470;19.080;2023-05-02T00:04:24;100261.75;;;13.87;46.80
53868;BME280;41577;47.470;19.080;2023-05-02T00:04:36;100263.63;;;13.87;47.10
53868;BME280;41577;47.470;19.080;2023-05-02T00:04:48;100265.25;;;13.88;47.35
53868;BME280;41577;47.470;19.080;2023-05-02T00:05:00;100263.38;;;13.88;46.73
53868;BME280;41577;47.470;19.080;2023-05-02T00:05:12;100261.75;;;13.87;47.03
53868;BME280;41577;47.470;19.080;2023-05-02T00:05:23;100262.56;;;13.88;47.16
53868;BME280;41577;47.470;19.080;2023-05-02T00:05:35;100257.41;;;13.86;47.08
53868;BME280;41577;47.470;19.080;2023-05-02T00:05:47;100260.94;;;13.87;47.28
53868;BME280;41577;47.470;19.080;2023-05-02T00:05:59;100261.75;;;13.87;46.88
53868;BME280;41577;47.470;19.080;2023-05-02T00:06:11;100256.38;;;13.87;47.32
53868;BME280;41577;47.470;19.080;2023-05-02T00:06:23;100265.25;;;13.88;47.02
53868;BME280;41577;47.470;19.080;2023-05-02T00:06:35;100263.63;;;13.87;47.21
53868;BME280;41577;47.470;19.080;2023-05-02T00:06:46;100262.56;;;13.88;47.48
53868;BME280;41577;47.470;19.080;2023-05-02T00:06:58;100260.69;;;13.88;46.94
53868;BME280;41577;47.470;19.080;2023-05-02T00:07:10;100256.59;;;13.86;47.13
53868;BME280;41577;47.470;19.080;2023-05-02T00:07:22;100260.09;;;13.86;47.54
53868;BME280;41577;47.470;19.080;2023-05-02T00:07:34;100263.63;;;13.87;47.13
53868;BME280;41577;47.470;19.080;2023-05-02T00:07:46;100267.13;;;13.87;47.35
53868;BME280;41577;47.470;19.080;2023-05-02T00:07:58;100265.25;;;13.88;46.99
53868;BME280;41577;47.470;19.080;2023-05-02T00:08:10;100262.78;;;13.86;47.32
53868;BME280;41577;47.470;19.080;2023-05-02T00:08:22;100264.63;;;13.86;47.21
53868;BME280;41577;47.470;19.080;2023-05-02T00:08:33;100264.44;;;13.87;47.23
53868;BME280;41577;47.470;19.080;2023-05-02T00:08:45;100261.75;;;13.87;47.23
53868;BME280;41577;47.470;19.080;2023-05-02T00:08:58;100259.28;;;13.86;47.43
53868;BME280;41577;47.470;19.080;2023-05-02T00:09:10;100264.63;;;13.86;47.48
53868;BME280;41577;47.470;19.080;2023-05-02T00:09:22;100265.44;;;13.86;47.57
53868;BME280;41577;47.470;19.080;2023-05-02T00:09:34;100261.94;;;13.86;47.56
53868;BME280;41577;47.470;19.080;2023-05-02T00:09:45;100261.13;;;13.85;47.46
53868;BME280;41577;47.470;19.080;2023-05-02T00:09:57;100263.81;;;13.85;47.22
53868;BME280;41577;47.470;19.080;2023-05-02T00:10:10;100261.13;;;13.85;47.79
53868;BME280;41577;47.470;19.080;2023-05-02T00:10:21;100266.50;;;13.85;47.27
53868;BME280;41577;47.470;19.080;2023-05-02T00:10:33;100264.84;;;13.84;47.32
53868;BME280;41577;47.470;19.080;2023-05-02T00:10:45;100265.69;;;13.85;47.23
53868;BME280;41577;47.470;19.080;2023-05-02T00:10:57;100262.16;;;13.84;47.25
53868;BME280;41577;47.470;19.080;2023-05-02T00:11:08;100262.38;;;13.83;47.45
53868;BME280;41577;47.470;19.080;2023-05-02T00:11:20;100263.19;;;13.83;47.44
53868;BME280;41577;47.470;19.080;2023-05-02T00:11:32;100264.03;;;13.84;47.35
53868;BME280;41577;47.470;19.080;2023-05-02T00:11:43;100259.47;;;13.84;47.47
53868;BME280;41577;47.470;19.080;2023-05-02T00:11:55;100264.03;;;13.84;47.27
53868;BME280;41577;47.470;19.080;2023-05-02T00:12:07;100262.38;;;13.83;47.65
53868;BME280;41577;47.470;19.080;2023-05-02T00:12:19;100266.69;;;13.84;47.43
53868;BME280;41577;47.470;19.080;2023-05-02T00:12:30;100270.22;;;13.84;47.72
53868;BME280;41577;47.470;19.080;2023-05-02T00:12:42;100266.91;;;13.82;47.01
53868;BME280;41577;47.470;19.080;2023-05-02T00:12:54;100259.69;;;13.83;47.24
53868;BME280;41577;47.470;19.080;2023-05-02T00:13:05;100260.53;;;13.83;46.88
53868;BME280;41577;47.470;19.080;2023-05-02T00:13:17;100259.47;;;13.84;47.28
53868;BME280;41577;47.470;19.080;2023-05-02T00:13:29;100264.03;;;13.84;47.19
53868;BME280;41577;47.470;19.080;2023-05-02T00:13:40;100264.84;;;13.84;46.99
53868;BME280;41577;47.470;19.080;2023-05-02T00:13:52;100262.16;;;13.84;46.83
53868;BME280;41577;47.470;19.080;2023-05-02T00:14:04;100262.38;;;13.83;47.26
53868;BME280;41577;47.470;19.080;2023-05-02T00:14:16;100255.16;;;13.83;47.36
53868;BME280;41577;47.470;19.080;2023-05-02T00:14:27;100255.16;;;13.83;47.01
53868;BME280;41577;47.470;19.080;2023-05-02T00:14:39;100256.78;;;13.84;47.03
53868;BME280;41577;47.470;19.080;2023-05-02T00:14:51;100256.78;;;13.84;47.34
53868;BME280;41577;47.470;19.080;2023-05-02T00:15:03;100256.78;;;13.84;47.33
53868;BME280;41577;47.470;19.080;2023-05-02T00:15:15;100254.94;;;13.85;47.23
53868;BME280;41577;47.470;19.080;2023-05-02T00:15:27;100254.09;;;13.84;47.09
53868;BME280;41577;47.470;19.080;2023-05-02T00:15:38;100257.63;;;13.85;46.79
53868;BME280;41577;47.470;19.080;2023-05-02T00:15:50;100254.94;;;13.85;47.18
53868;BME280;41577;47.470;19.080;2023-05-02T00:16:04;100262.16;;;13.84;46.85
53868;BME280;41577;47.470;19.080;2023-05-02T00:16:15;100258.44;;;13.85;46.86
53868;BME280;41577;47.470;19.080;2023-05-02T00:16:27;100260.31;;;13.85;46.62
53868;BME280;41577;47.470;19.080;2023-05-02T00:16:39;100257.63;;;13.85;46.96
53868;BME280;41577;47.470;19.080;2023-05-02T00:16:50;100263.00;;;13.85;47.22
53868;BME280;41577;47.470;19.080;2023-05-02T00:17:02;100253.06;;;13.85;47.68
53868;BME280;41577;47.470;19.080;2023-05-02T00:17:16;100261.94;;;13.86;46.81
53868;BME280;41577;47.470;19.080;2023-05-02T00:17:27;100251.66;;;13.83;46.73
53868;BME280;41577;47.470;19.080;2023-05-02T00:17:40;100254.94;;;13.85;46.83
53868;BME280;41577;47.470;19.080;2023-05-02T00:17:52;100259.47;;;13.84;46.65
53868;BME280;41577;47.470;19.080;2023-05-02T00:18:04;100265.44;;;13.86;46.97
53868;BME280;41577;47.470;19.080;2023-05-02T00:18:15;100262.78;;;13.86;47.08
53868;BME280;41577;47.470;19.080;2023-05-02T00:18:27;100263.81;;;13.85;46.91
53868;BME280;41577;47.470;19.080;2023-05-02T00:18:39;100260.09;;;13.86;47.12
53868;BME280;41577;47.470;19.080;2023-05-02T00:18:50;100259.28;;;13.86;46.96
53868;BME280;41577;47.470;19.080;2023-05-02T00:19:02;100260.09;;;13.86;47.40
53868;BME280;41577;47.470;19.080;2023-05-02T00:19:14;100261.94;;;13.86;47.28
53868;BME280;41577;47.470;19.080;2023-05-02T00:19:26;100263.63;;;13.87;47.40
53868;BME280;41577;47.470;19.080;2023-05-02T00:19:38;100255.75;;;13.85;47.70
53868;BME280;41577;47.470;19.080;2023-05-02T00:19:49;100261.13;;;13.85;47.55
53868;BME280;41577;47.470;19.080;2023-05-02T00:20:01;100262.78;;;13.86;47.50
53868;BME280;41577;47.470;19.080;2023-05-02T00:20:13;100258.25;;;13.87;47.36
53868;BME280;41577;47.470;19.080;2023-05-02T00:20:25;100251.22;;;13.86;47.36
53868;BME280;41577;47.470;19.080;2023-05-02T00:20:38;100257.63;;;13.85;47.08
53868;BME280;41577;47.470;19.080;2023-05-02T00:20:50;100251.22;;;13.86;46.90
53868;BME280;41577;47.470;19.080;2023-05-02T00:21:02;100257.41;;;13.86;47.17
53868;BME280;41577;47.470;19.080;2023-05-02T00:21:14;100260.09;;;13.86;47.11
53868;BME280;41577;47.470;19.080;2023-05-02T00:21:25;100260.09;;;13.86;46.90
53868;BME280;41577;47.470;19.080;2023-05-02T00:21:37;100266.31;;;13.87;47.21
53868;BME280;41577;47.470;19.080;2023-05-02T00:21:52;100260.94;;;13.87;47.04
53868;BME280;41577;47.470;19.080;2023-05-02T00:22:04;100257.41;;;13.86;47.14
53868;BME280;41577;47.470;19.080;2023-05-02T00:22:15;100260.09;;;13.86;46.77
53868;BME280;41577;47.470;19.080;2023-05-02T00:22:27;100259.28;;;13.86;47.03
53868;BME280;41577;47.470;19.080;2023-05-02T00:22:39;100261.94;;;13.86;46.70
53868;BME280;41577;47.470;19.080;2023-05-02T00:22:50;100254.72;;;13.86;47.26
53868;BME280;41577;47.470;19.080;2023-05-02T00:23:02;100262.78;;;13.86;47.07
53868;BME280;41577;47.470;19.080;2023-05-02T00:23:14;100272.50;;;13.87;46.59
53868;BME280;41577;47.470;19.080;2023-05-02T00:23:25;100267.31;;;13.86;47.14
53868;BME280;41577;47.470;19.080;2023-05-02T00:23:37;100262.78;;;13.86;46.83
53868;BME280;41577;47.470;19.080;2023-05-02T00:23:50;100265.44;;;13.86;46.77
53868;BME280;41577;47.470;19.080;2023-05-02T00:24:01;100264.63;;;13.86;47.07
53868;BME280;41577;47.470;19.080;2023-05-02T00:24:13;100265.44;;;13.86;47.07
53868;BME280;41577;47.470;19.080;2023-05-02T00:24:25;100266.50;;;13.85;47.13
53868;BME280;41577;47.470;19.080;2023-05-02T00:24:37;100263.81;;;13.85;47.28
53868;BME280;41577;47.470;19.080;2023-05-02T00:24:49;100264.63;;;13.86;47.27
53868;BME280;41577;47.470;19.080;2023-05-02T00:25:01;100263.00;;;13.85;47.11
53868;BME280;41577;47.470;19.080;2023-05-02T00:25:12;100266.50;;;13.85;46.82
53868;BME280;41577;47.470;19.080;2023-05-02T00:25:24;100268.13;;;13.86;46.93
53868;BME280;41577;47.470;19.080;2023-05-02T00:25:36;100270.00;;;13.86;46.55
53868;BME280;41577;47.470;19.080;2023-05-02T00:25:47;100265.69;;;13.85;47.29
53868;BME280;41577;47.470;19.080;2023-05-02T00:25:59;100268.38;;;13.85;46.91
53868;BME280;41577;47.470;19.080;2023-05-02T00:26:11;100266.50;;;13.85;46.96
53868;BME280;41577;47.470;19.080;2023-05-02T00:26:26;100270.00;;;13.86;47.14
53868;BME280;41577;47.470;19.080;2023-05-02T00:26:37;100270.81;;;13.86;47.32
53868;BME280;41577;47.470;19.080;2023-05-02T00:26:49;100272.50;;;13.87;47.36
53868;BME280;41577;47.470;19.080;2023-05-02T00:27:01;100264.63;;;13.86;47.00
53868;BME280;41577;47.470;19.080;2023-05-02T00:27:13;100273.50;;;13.86;47.11
53868;BME280;41577;47.470;19.080;2023-05-02T00:27:25;100267.31;;;13.86;46.74
53868;BME280;41577;47.470;19.080;2023-05-02T00:27:36;100266.31;;;13.87;47.29
53868;BME280;41577;47.470;19.080;2023-05-02T00:27:48;100267.31;;;13.86;47.24
53868;BME280;41577;47.470;19.080;2023-05-02T00:28:00;100270.63;;;13.88;47.43
53868;BME280;41577;47.470;19.080;2023-05-02T00:28:12;100268.13;;;13.86;47.62
53868;BME280;41577;47.470;19.080;2023-05-02T00:28:23;100264.84;;;13.84;47.55
53868;BME280;41577;47.470;19.080;2023-05-02T00:28:35;100262.78;;;13.86;47.47
53868;BME280;41577;47.470;19.080;2023-05-02T00:28:47;100271.66;;;13.87;47.67
53868;BME280;41577;47.470;19.080;2023-05-02T00:28:58;100265.44;;;13.86;47.57
53868;BME280;41577;47.470;19.080;2023-05-02T00:29:10;100269.19;;;13.85;47.56
53868;BME280;41577;47.470;19.080;2023-05-02T00:29:22;100269.19;;;13.85;47.34
53868;BME280;41577;47.470;19.080;2023-05-02T00:29:34;100264.84;;;13.84;47.44
53868;BME280;41577;47.470;19.080;2023-05-02T00:29:45;100268.56;;;13.83;47.43
53868;BME280;41577;47.470;19.080;2023-05-02T00:29:57;100271.88;;;13.85;47.21
53868;BME280;41577;47.470;19.080;2023-05-02T00:30:10;100274.56;;;13.85;47.13
53868;BME280;41577;47.470;19.080;2023-05-02T00:30:22;100264.84;;;13.84;47.08
53868;BME280;41577;47.470;19.080;2023-05-02T00:30:33;100272.88;;;13.84;47.33
53868;BME280;41577;47.470;19.080;2023-05-02T00:30:45;100262.59;;;13.81;46.79
53868;BME280;41577;47.470;19.080;2023-05-02T00:30:57;100270.22;;;13.84;47.08
53868;BME280;41577;47.470;19.080;2023-05-02T00:31:11;100269.38;;;13.84;47.45
53868;BME280;41577;47.470;19.080;2023-05-02T00:31:22;100268.56;;;13.83;47.68
53868;BME280;41577;47.470;19.080;2023-05-02T00:31:34;100261.34;;;13.84;47.14
53868;BME280;41577;47.470;19.080;2023-05-02T00:31:46;100258.66;;;13.84;47.06
53868;BME280;41577;47.470;19.080;2023-05-02T00:31:58;100258.44;;;13.85;47.03
53868;BME280;41577;47.470;19.080;2023-05-02T00:32:09;100253.91;;;13.86;47.20
53868;BME280;41577;47.470;19.080;2023-05-02T00:32:21;100261.13;;;13.85;47.55
53868;BME280;41577;47.470;19.080;2023-05-02T00:32:33;100257.63;;;13.85;47.07
53868;BME280;41577;47.470;19.080;2023-05-02T00:32:45;100263.81;;;13.85;47.13
53868;BME280;41577;47.470;19.080;2023-05-02T00:32:57;100258.44;;;13.85;47.40
53868;BME280;41577;47.470;19.080;2023-05-02T00:33:09;100256.59;;;13.86;47.21
53868;BME280;41577;47.470;19.080;2023-05-02T00:33:20;100260.31;;;13.85;47.72
53868;BME280;41577;47.470;19.080;2023-05-02T00:33:32;100257.00;;;13.83;47.26
53868;BME280;41577;47.470;19.080;2023-05-02T00:33:44;100261.13;;;13.85;47.50
53868;BME280;41577;47.470;19.080;2023-05-02T00:33:56;100259.28;;;13.86;47.54
53868;BME280;41577;47.470;19.080;2023-05-02T00:34:07;100260.31;;;13.85;47.28
53868;BME280;41577;47.470;19.080;2023-05-02T00:34:19;100265.69;;;13.85;47.23
53868;BME280;41577;47.470;19.080;2023-05-02T00:34:31;100272.69;;;13.86;47.26
53868;BME280;41577;47.470;19.080;2023-05-02T00:34:43;100263.00;;;13.85;47.45
53868;BME280;41577;47.470;19.080;2023-05-02T00:34:55;100266.50;;;13.85;47.12
53868;BME280;41577;47.470;19.080;2023-05-02T00:35:07;100263.00;;;13.85;47.25
53868;BME280;41577;47.470;19.080;2023-05-02T00:35:19;100270.00;;;13.86;46.98
53868;BME280;41577;47.470;19.080;2023-05-02T00:35:32;100263.00;;;13.85;47.33
53868;BME280;41577;47.470;19.080;2023-05-02T00:35:43;100267.31;;;13.86;47.06
53868;BME280;41577;47.470;19.080;2023-05-02T00:35:55;100263.81;;;13.85;46.96
53868;BME280;41577;47.470;19.080;2023-05-02T00:36:12;100257.63;;;13.85;47.06
53868;BME280;41577;47.470;19.080;2023-05-02T00:36:24;100258.66;;;13.84;47.01
53868;BME280;41577;47.470;19.080;2023-05-02T00:36:35;100258.44;;;13.85;46.99
53868;BME280;41577;47.470;19.080;2023-05-02T00:36:47;100260.09;;;13.86;47.22
53868;BME280;41577;47.470;19.080;2023-05-02T00:36:59;100265.44;;;13.86;47.28
53868;BME280;41577;47.470;19.080;2023-05-02T00:37:11;100258.44;;;13.85;46.83
53868;BME280;41577;47.470;19.080;2023-05-02T00:37:25;100260.09;;;13.86;47.26
53868;BME280;41577;47.470;19.080;2023-05-02T00:37:37;100262.78;;;13.86;47.21
53868;BME280;41577;47.470;19.080;2023-05-02T00:37:49;100260.09;;;13.86;47.19
53868;BME280;41577;47.470;19.080;2023-05-02T00:38:00;100258.44;;;13.85;47.36
53868;BME280;41577;47.470;19.080;2023-05-02T00:38:12;100262.78;;;13.86;47.46
53868;BME280;41577;47.470;19.080;2023-05-02T00:38:24;100261.13;;;13.85;47.19
53868;BME280;41577;47.470;19.080;2023-05-02T00:38:35;100253.91;;;13.86;46.96
53868;BME280;41577;47.470;19.080;2023-05-02T00:38:47;100261.13;;;13.85;47.32
53868;BME280;41577;47.470;19.080;2023-05-02T00:38:59;100265.44;;;13.86;47.02
53868;BME280;41577;47.470;19.080;2023-05-02T00:39:11;100265.44;;;13.86;46.84
53868;BME280;41577;47.470;19.080;2023-05-02T00:39:22;100263.00;;;13.85;46.85
53868;BME280;41577;47.470;19.080;2023-05-02T00:39:34;100261.75;;;13.87;46.47
53868;BME280;41577;47.470;19.080;2023-05-02T00:39:46;100265.44;;;13.86;46.47
53868;BME280;41577;47.470;19.080;2023-05-02T00:39:58;100268.13;;;13.86;47.10
53868;BME280;41577;47.470;19.080;2023-05-02T00:40:11;100260.69;;;13.88;46.74
53868;BME280;41577;47.470;19.080;2023-05-02T00:40:23;100261.75;;;13.87;47.29
53868;BME280;41577;47.470;19.080;2023-05-02T00:40:42;100263.63;;;13.87;46.92
53868;BME280;41577;47.470;19.080;2023-05-02T00:40:53;100260.94;;;13.87;47.27
53868;BME280;41577;47.470;19.080;2023-05-02T00:41:05;100259.88;;;13.88;47.21
53868;BME280;41577;47.470;19.080;2023-05-02T00:41:17;100257.41;;;13.86;46.82
53868;BME280;41577;47.470;19.080;2023-05-02T00:41:29;100256.38;;;13.87;46.94
53868;BME280;41577;47.470;19.080;2023-05-02T00:41:40;100258.25;;;13.87;47.08
53868;BME280;41577;47.470;19.080;2023-05-02T00:41:55;100258.00;;;13.88;46.79
53868;BME280;41577;47.470;19.080;2023-05-02T00:42:07;100257.19;;;13.88;47.39
53868;BME280;41577;47.470;19.080;2023-05-02T00:42:19;100252.88;;;13.87;47.18
53868;BME280;41577;47.470;19.080;2023-05-02T00:42:32;100260.09;;;13.86;46.93
53868;BME280;41577;47.470;19.080;2023-05-02T00:42:44;100258.00;;;13.88;46.52
53868;BME280;41577;47.470;19.080;2023-05-02T00:42:55;100257.19;;;13.88;47.26
53868;BME280;41577;47.470;19.080;2023-05-02T00:43:07;100254.50;;;13.88;46.66
53868;BME280;41577;47.470;19.080;2023-05-02T00:43:19;100258.84;;;13.89;46.60
53868;BME280;41577;47.470;19.080;2023-05-02T00:43:31;100259.88;;;13.88;45.80
53868;BME280;41577;47.470;19.080;2023-05-02T00:43:43;100253.69;;;13.87;46.09
53868;BME280;41577;47.470;19.080;2023-05-02T00:43:54;100259.06;;;13.87;46.19
53868;BME280;41577;47.470;19.080;2023-05-02T00:44:06;100263.63;;;13.87;45.90
53868;BME280;41577;47.470;19.080;2023-05-02T00:44:18;100263.63;;;13.87;46.33
53868;BME280;41577;47.470;19.080;2023-05-02T00:44:29;100265.44;;;13.86;46.38
53868;BME280;41577;47.470;19.080;2023-05-02T00:44:41;100259.06;;;13.87;46.43
53868;BME280;41577;47.470;19.080;2023-05-02T00:44:53;100257.41;;;13.86;46.47
53868;BME280;41577;47.470;19.080;2023-05-02T00:45:05;100259.28;;;13.86;46.15
53868;BME280;41577;47.470;19.080;2023-05-02T00:45:17;100270.00;;;13.86;46.74
53868;BME280;41577;47.470;19.080;2023-05-02T00:45:29;100266.50;;;13.85;46.31
53868;BME280;41577;47.470;19.080;2023-05-02T00:45:42;100263.81;;;13.85;46.81
53868;BME280;41577;47.470;19.080;2023-05-02T00:45:54;100268.38;;;13.85;46.68
53868;BME280;41577;47.470;19.080;2023-05-02T00:46:06;100267.53;;;13.84;46.74
53868;BME280;41577;47.470;19.080;2023-05-02T00:46:19;100262.38;;;13.83;46.84
53868;BME280;41577;47.470;19.080;2023-05-02T00:46:31;100262.16;;;13.84;47.05
53868;BME280;41577;47.470;19.080;2023-05-02T00:46:43;100255.78;;;13.78;46.57
53868;BME280;41577;47.470;19.080;2023-05-02T00:46:55;100264.22;;;13.82;46.64
53868;BME280;41577;47.470;19.080;2023-05-02T00:47:07;100259.69;;;13.83;46.50
53868;BME280;41577;47.470;19.080;2023-05-02T00:47:19;100265.06;;;13.83;47.05
53868;BME280;41577;47.470;19.080;2023-05-02T00:47:31;100264.22;;;13.82;46.72
53868;BME280;41577;47.470;19.080;2023-05-02T00:47:43;100259.69;;;13.83;47.05
53868;BME280;41577;47.470;19.080;2023-05-02T00:47:54;100264.22;;;13.82;46.66
53868;BME280;41577;47.470;19.080;2023-05-02T00:48:07;100264.22;;;13.82;46.86
53868;BME280;41577;47.470;19.080;2023-05-02T00:48:18;100261.78;;;13.80;46.56
53868;BME280;41577;47.470;19.080;2023-05-02T00:48:30;100262.78;;;13.79;46.75
53868;BME280;41577;47.470;19.080;2023-05-02T00:48:42;100267.13;;;13.80;46.46
53868;BME280;41577;47.470;19.080;2023-05-02T00:48:54;100262.78;;;13.79;46.52
53868;BME280;41577;47.470;19.080;2023-05-02T00:49:06;100260.94;;;13.80;46.81
53868;BME280;41577;47.470;19.080;2023-05-02T00:49:18;100261.78;;;13.80;46.72
53868;BME280;41577;47.470;19.080;2023-05-02T00:49:29;100258.25;;;13.80;46.80
53868;BME280;41577;47.470;19.080;2023-05-02T00:49:41;100259.28;;;13.79;46.88
53868;BME280;41577;47.470;19.080;2023-05-02T00:49:53;100260.94;;;13.80;46.92
53868;BME280;41577;47.470;19.080;2023-05-02T00:50:05;100256.59;;;13.79;46.92
53868;BME280;41577;47.470;19.080;2023-05-02T00:50:17;100260.34;;;13.78;46.98
53868;BME280;41577;47.470;19.080;2023-05-02T00:50:30;100261.97;;;13.79;46.61
53868;BME280;41577;47.470;19.080;2023-05-02T00:50:43;100260.94;;;13.80;46.35
53868;BME280;41577;47.470;19.080;2023-05-02T00:50:55;100257.22;;;13.81;46.72
53868;BME280;41577;47.470;19.080;2023-05-02T00:51:07;100261.78;;;13.80;46.78
53868;BME280;41577;47.470;19.080;2023-05-02T00:51:18;100262.59;;;13.81;46.48
53868;BME280;41577;47.470;19.080;2023-05-02T00:51:32;100267.13;;;13.80;46.53
53868;BME280;41577;47.470;19.080;2023-05-02T00:51:44;100261.78;;;13.80;46.67
53868;BME280;41577;47.470;19.080;2023-05-02T00:51:55;100260.94;;;13.80;46.46
53868;BME280;41577;47.470;19.080;2023-05-02T00:52:07;100266.31;;;13.80;46.80
53868;BME280;41577;47.470;19.080;2023-05-02T00:52:19;100259.91;;;13.81;46.28
53868;BME280;41577;47.470;19.080;2023-05-02T00:52:31;100261.78;;;13.80;46.24
53868;BME280;41577;47.470;19.080;2023-05-02T00:52:43;100263.41;;;13.81;46.01
53868;BME280;41577;47.470;19.080;2023-05-02T00:52:55;100261.53;;;13.82;45.78
53868;BME280;41577;47.470;19.080;2023-05-02T00:53:08;100269.59;;;13.82;45.71
53868;BME280;41577;47.470;19.080;2023-05-02T00:53:20;100267.94;;;13.81;45.99
53868;BME280;41577;47.470;19.080;2023-05-02T00:53:32;100262.38;;;13.83;45.70
53868;BME280;41577;47.470;19.080;2023-05-02T00:53:44;100258.25;;;13.80;45.58
53868;BME280;41577;47.470;19.080;2023-05-02T00:53:56;100268.56;;;13.83;45.83
53868;BME280;41577;47.470;19.080;2023-05-02T00:54:07;100267.53;;;13.84;46.29
53868;BME280;41577;47.470;19.080;2023-05-02T00:54:19;100269.38;;;13.84;46.11
53868;BME280;41577;47.470;19.080;2023-05-02T00:54:31;100270.22;;;13.84;46.27
53868;BME280;41577;47.470;19.080;2023-05-02T00:54:43;100262.16;;;13.84;46.17
53868;BME280;41577;47.470;19.080;2023-05-02T00:54:55;100260.53;;;13.83;46.11
53868;BME280;41577;47.470;19.080;2023-05-02T00:55:07;100263.00;;;13.85;46.27
53868;BME280;41577;47.470;19.080;2023-05-02T00:55:19;100259.47;;;13.84;46.46
53868;BME280;41577;47.470;19.080;2023-05-02T00:55:31;100266.69;;;13.84;46.38
53868;BME280;41577;47.470;19.080;2023-05-02T00:55:43;100267.53;;;13.84;46.46
53868;BME280;41577;47.470;19.080;2023-05-02T00:55:56;100259.47;;;13.84;46.63
53868;BME280;41577;47.470;19.080;2023-05-02T00:56:08;100270.22;;;13.84;46.63
53868;BME280;41577;47.470;19.080;2023-05-02T00:56:20;100265.88;;;13.83;46.59
53868;BME280;41577;47.470;19.080;2023-05-02T00:56:31;100259.47;;;13.84;46.41
53868;BME280;41577;47.470;19.080;2023-05-02T00:56:43;100263.81;;;13.85;46.68
53868;BME280;41577;47.470;19.080;2023-05-02T00:56:55;100263.19;;;13.83;46.44
53868;BME280;41577;47.470;19.080;2023-05-02T00:57:07;100260.31;;;13.85;46.52
53868;BME280;41577;47.470;19.080;2023-05-02T00:57:19;100254.53;;;13.81;46.57
53868;BME280;41577;47.470;19.080;2023-05-02T00:57:32;100262.16;;;13.84;46.54
53868;BME280;41577;47.470;19.080;2023-05-02T00:57:44;100268.38;;;13.85;46.64
53868;BME280;41577;47.470;19.080;2023-05-02T00:57:55;100259.47;;;13.84;46.18
53868;BME280;41577;47.470;19.080;2023-05-02T00:58:10;100262.16;;;13.84;46.39
53868;BME280;41577;47.470;19.080;2023-05-02T00:58:23;100261.13;;;13.85;46.48
53868;BME280;41577;47.470;19.080;2023-05-02T00:58:35;100265.69;;;13.85;46.39
53868;BME280;41577;47.470;19.080;2023-05-02T00:58:48;100266.50;;;13.85;46.88
53868;BME280;41577;47.470;19.080;2023-05-02T00:59:00;100260.31;;;13.85;46.96
53868;BME280;41577;47.470;19.080;2023-05-02T00:59:12;100266.50;;;13.85;46.91
53868;BME280;41577;47.470;19.080;2023-05-02T00:59:25;100264.03;;;13.84;46.90
53868;BME280;41577;47.470;19.080;2023-05-02T00:59:37;100259.47;;;13.84;46.55
53868;BME280;41577;47.470;19.080;2023-05-02T00:59:49;100268.38;;;13.85;46.25
53868;BME280;41577;47.470;19.080;2023-05-02T01:00:02;100267.53;;;13.84;46.33
53868;BME280;41577;47.470;19.080;2023-05-02T01:00:13;100260.72;;;13.81;46.37
53868;BME280;41577;47.470;19.080;2023-05-02T01:00:30;100264.84;;;13.84;46.39
53868;BME280;41577;47.470;19.080;2023-05-02T01:00:58;100264.03;;;13.84;46.78
53868;BME280;41577;47.470;19.080;2023-05-02T01:01:32;100260.53;;;13.83;46.61
53868;BME280;41577;47.470;19.080;2023-05-02T01:01:55;100265.88;;;13.83;46.69
53868;BME280;41577;47.470;19.080;2023-05-02T01:02:21;100267.75;;;13.83;46.80
53868;BME280;41577;47.470;19.080;2023-05-02T01:02:42;100259.69;;;13.83;46.68
53868;BME280;41577;47.470;19.080;2023-05-02T01:03:06;100260.53;;;13.83;46.69
53868;BME280;41577;47.470;19.080;2023-05-02T01:03:28;100258.84;;;13.82;46.47
53868;BME280;41577;47.470;19.080;2023-05-02T01:03:49;100266.69;;;13.84;46.75